Time,TemperatureF,DewpointF,PressureIn,WindDirection,WindDirectionDegrees,WindSpeedMPH,WindSpeedGustMPH,Humidity,HourlyPrecipIn,Conditions,Clouds,dailyrainin,SoftwareType,DateUTC
2013-04-19 00:00:00,66.0,66.0,30.01,SSW,196,1.0,10.0,100,0.00,,,0.00,WeatherDisplay:10.37,2013-04-19 04:00:00,
2013-04-19 00:24:00,65.9,65.9,30.00,South,171,0.0,5.0,100,0.00,,,0.00,WeatherDisplay:10.37,2013-04-19 04:24:00,
2013-04-19 01:00:00,65.8,65.8,29.99,SSE,162,0.0,6.0,100,0.00,,,0.00,WeatherDisplay:10.37,2013-04-19 05:00:00,
2013-04-19 02:00:00,65.9,65.9,29.95,South,180,0.0,4.0,100,0.00,,,0.00,WeatherDisplay:10.37,2013-04-19 06:00:00,
2013-04-19 03:00:00,67.0,67.0,29.92,SSW,196,1.0,8.0,100,0.00,,,0.00,WeatherDisplay:10.37,2013-04-19 07:00:00,
2013-04-19 04:00:00,67.4,67.4,29.90,SSW,198,0.0,7.0,100,0.00,,,0.00,WeatherDisplay:10.37,2013-04-19 08:00:00,
2013-04-19 05:00:00,67.0,67.0,29.89,SSW,209,0.0,8.0,100,0.00,,,0.00,WeatherDisplay:10.37,2013-04-19 09:00:00,
2013-04-19 06:00:00,67.1,67.1,29.89,South,191,0.0,7.0,100,0.02,,,0.02,WeatherDisplay:10.37,2013-04-19 10:00:00,
2013-04-19 07:00:00,67.1,67.1,29.89,South,170,1.0,8.0,100,0.00,,,0.02,WeatherDisplay:10.37,2013-04-19 11:00:00,
2013-04-19 08:00:00,68.2,68.2,29.89,SSW,203,0.0,12.0,100,0.00,,,0.02,WeatherDisplay:10.37,2013-04-19 12:00:00,
2013-04-19 09:00:00,70.3,70.3,29.89,South,190,2.0,16.0,100,0.00,,,0.02,WeatherDisplay:10.37,2013-04-19 13:00:00,
2013-04-19 10:00:00,72.0,72.0,29.88,SSW,203,6.0,20.0,100,0.00,,,0.02,WeatherDisplay:10.37,2013-04-19 14:00:00,
2013-04-19 11:00:00,74.2,74.2,29.87,SSW,212,5.0,21.0,100,0.00,,,0.02,WeatherDisplay:10.37,2013-04-19 15:00:00,
2013-04-19 12:00:00,77.1,-30.9,29.84,SSW,202,8.0,25.0,1,0.00,CLR,,0.02,WeatherDisplay:10.37,2013-04-19 16:00:00,
2013-04-19 13:00:00,79.7,6.7,29.80,SSW,208,5.0,20.0,6,0.00,CLR,,0.02,WeatherDisplay:10.37,2013-04-19 17:00:00,
2013-04-19 14:00:00,79.8,15.9,29.76,South,183,2.0,21.0,9,0.00,CLR,,0.02,WeatherDisplay:10.37,2013-04-19 18:00:00,
2013-04-19 15:00:00,79.7,15.8,29.73,South,182,6.0,16.0,9,0.00,CLR,,0.02,WeatherDisplay:10.37,2013-04-19 19:00:00,
2013-04-19 16:00:00,81.7,26.0,29.69,South,187,7.0,22.0,13,0.00,CLR,,0.02,WeatherDisplay:10.37,2013-04-19 20:00:00,
2013-04-19 17:00:00,81.2,21.7,29.68,SSW,192,5.0,27.0,11,0.00,CLR,,0.02,WeatherDisplay:10.37,2013-04-19 21:00:00,
2013-04-19 18:00:00,79.9,26.4,29.67,South,184,3.0,22.0,14,0.00,CLR,,0.02,WeatherDisplay:10.37,2013-04-19 22:00:00,
2013-04-19 19:00:00,71.6,25.8,29.76,WSW,240,2.0,30.0,18,0.19,RA,,0.21,WeatherDisplay:10.37,2013-04-19 23:00:00,
2013-04-19 20:00:00,65.7,65.7,29.75,SW,225,3.0,12.0,100,0.15,RA,,0.36,WeatherDisplay:10.37,2013-04-20 00:00:00,
2013-04-19 21:00:00,65.8,65.8,29.77,SSW,212,6.0,16.0,100,0.09,RA,,0.45,WeatherDisplay:10.37,2013-04-20 01:00:00,
2013-04-19 22:00:00,65.5,65.5,29.78,SSW,205,3.0,13.0,100,0.04,RA,,0.49,WeatherDisplay:10.37,2013-04-20 02:00:00,
2013-04-19 23:00:00,65.5,11.5,29.74,SSW,210,0.0,12.0,12,0.03,,,0.52,WeatherDisplay:10.37,2013-04-20 03:00:00,